createdAt,value
2023-01-11T00:01:31.313Z,2.95
2023-01-11T00:03:58.857Z,2.30
2023-01-11T00:06:25.795Z,2.35
2023-01-11T00:08:52.718Z,5.13
2023-01-11T00:11:19.801Z,2.80
2023-01-11T00:13:46.785Z,4.40
2023-01-11T00:16:14.009Z,4.40
2023-01-11T00:18:41.358Z,3.80
2023-01-11T00:21:09.060Z,4.05
2023-01-11T00:23:37.409Z,2.22
2023-01-11T00:26:11.341Z,1.50
2023-01-11T00:28:38.298Z,2.70
2023-01-11T00:31:05.821Z,5.15
2023-01-11T00:33:33.134Z,5.30
2023-01-11T00:36:00.029Z,6.25
2023-01-11T00:38:47.014Z,5.55
2023-01-11T00:41:34.641Z,4.10
2023-01-11T00:44:20.944Z,2.00
2023-01-11T00:47:06.876Z,1.85
2023-01-11T00:49:33.792Z,1.25
2023-01-11T00:52:00.737Z,2.33
2023-01-11T00:54:27.916Z,4.55
2023-01-11T00:56:54.881Z,3.38
2023-01-11T00:59:21.873Z,3.35
2023-01-11T01:01:48.665Z,2.65
2023-01-11T01:04:15.525Z,3.28
2023-01-11T01:06:42.524Z,2.53
2023-01-11T01:09:09.703Z,2.30
2023-01-11T01:11:36.651Z,2.28
2023-01-11T01:14:22.537Z,3.10
2023-01-11T01:16:49.882Z,2.22
2023-01-11T01:19:16.819Z,2.42
2023-01-11T01:21:43.731Z,2.78
2023-01-11T01:24:10.717Z,3.00
2023-01-11T01:26:37.488Z,5.93
2023-01-11T01:29:04.541Z,3.80
2023-01-11T01:31:31.379Z,4.25
2023-01-11T01:33:58.508Z,4.68
2023-01-11T01:36:25.518Z,3.33
2023-01-11T01:38:52.413Z,3.90
2023-01-11T01:41:19.444Z,3.53
2023-01-11T01:43:55.666Z,3.30
2023-01-11T01:46:26.917Z,2.75
2023-01-11T01:49:17.464Z,2.88
2023-01-11T01:51:52.095Z,2.63
2023-01-11T01:54:24.995Z,2.50
2023-01-11T01:57:00.662Z,3.22
2023-01-11T01:59:29.808Z,3.20
2023-01-11T02:01:57.297Z,3.08
2023-01-11T02:04:30.996Z,3.00
2023-01-11T02:07:08.180Z,2.47
2023-01-11T02:10:01.629Z,4.20
2023-01-11T02:12:32.168Z,5.05
2023-01-11T02:15:03.328Z,6.10
2023-01-11T02:17:30.189Z,5.57
2023-01-11T02:20:00.707Z,5.00
2023-01-11T02:22:53.652Z,4.00
2023-01-11T02:25:26.492Z,4.25
2023-01-11T02:28:10.672Z,5.45
2023-01-11T02:30:46.873Z,6.57
2023-01-11T02:33:22.871Z,6.50
2023-01-11T02:35:54.492Z,8.07
2023-01-11T02:38:41.830Z,7.03
2023-01-11T02:41:57.906Z,5.03
2023-01-11T02:44:54.727Z,5.25
2023-01-11T02:47:30.593Z,5.20
2023-01-11T02:50:01.966Z,4.90
2023-01-11T02:52:39.573Z,5.50
2023-01-11T02:55:09.613Z,4.40
2023-01-11T02:57:39.853Z,4.00
2023-01-11T03:00:10.069Z,3.35
2023-01-11T03:02:37.167Z,3.13
2023-01-11T03:05:11.785Z,3.33
2023-01-11T03:08:07.211Z,3.08
2023-01-11T03:11:08.626Z,3.75
2023-01-11T03:14:01.721Z,3.85
2023-01-11T03:16:39.497Z,4.50
2023-01-11T03:19:36.919Z,4.40
2023-01-11T03:22:26.351Z,4.82
2023-01-11T03:25:02.037Z,4.55
2023-01-11T03:27:37.938Z,4.90
2023-01-11T03:30:19.767Z,4.80
2023-01-11T03:33:01.916Z,5.28
2023-01-11T03:35:55.442Z,4.15
2023-01-11T03:38:35.834Z,4.90
2023-01-11T03:41:08.320Z,4.90
2023-01-11T03:43:40.278Z,4.80
2023-01-11T03:46:12.309Z,4.80
2023-01-11T03:48:46.337Z,4.15
2023-01-11T03:51:18.694Z,5.40
2023-01-11T03:53:49.150Z,4.20
2023-01-11T03:56:20.276Z,4.43
2023-01-11T03:58:47.097Z,3.90
2023-01-11T04:01:14.205Z,3.53
2023-01-11T04:03:41.248Z,3.55
2023-01-11T04:06:11.419Z,4.25
2023-01-11T04:08:38.263Z,3.90
2023-01-11T04:11:05.553Z,3.28
2023-01-11T04:13:34.173Z,3.42
2023-01-11T04:16:01.139Z,3.25
2023-01-11T04:18:28.207Z,3.40
2023-01-11T04:20:55.328Z,3.40
2023-01-11T04:23:22.135Z,2.70
2023-01-11T04:25:49.025Z,2.92
2023-01-11T04:28:15.904Z,2.65
2023-01-11T04:30:42.663Z,2.45
2023-01-11T04:33:13.377Z,3.17
2023-01-11T04:35:40.816Z,2.35
2023-01-11T04:38:07.623Z,1.77
2023-01-11T04:40:34.496Z,2.25
2023-01-11T04:43:02.453Z,2.45
2023-01-11T04:45:30.371Z,2.22
2023-01-11T04:47:58.399Z,1.70
2023-01-11T04:50:26.790Z,1.70
2023-01-11T04:52:54.125Z,1.48
2023-01-11T04:55:20.929Z,2.13
2023-01-11T04:57:47.852Z,2.03
2023-01-11T05:00:16.061Z,2.15
2023-01-11T05:02:43.401Z,2.72
2023-01-11T05:05:11.621Z,2.30
2023-01-11T05:07:39.427Z,2.30
2023-01-11T05:10:06.768Z,2.60
2023-01-11T05:12:33.585Z,2.85
2023-01-11T05:15:00.457Z,2.70
2023-01-11T05:17:27.377Z,2.40
2023-01-11T05:19:54.394Z,2.38
2023-01-11T05:22:21.175Z,2.70
2023-01-11T05:24:47.934Z,1.92
2023-01-11T05:27:14.746Z,2.10
2023-01-11T05:29:41.507Z,2.92
2023-01-11T05:32:08.418Z,2.42
2023-01-11T05:34:35.369Z,2.70
2023-01-11T05:37:02.139Z,3.90
2023-01-11T05:39:29.004Z,5.78
2023-01-11T05:41:55.734Z,4.63
2023-01-11T05:44:40.919Z,4.68
2023-01-11T05:47:07.692Z,4.28
2023-01-11T05:49:34.587Z,3.90
2023-01-11T05:52:01.328Z,3.60
2023-01-11T05:54:28.115Z,3.40
2023-01-11T05:56:57.826Z,2.58
2023-01-11T05:59:26.953Z,2.70
2023-01-11T06:01:53.843Z,2.28
2023-01-11T06:04:20.737Z,2.17
2023-01-11T06:06:47.528Z,2.33
2023-01-11T06:09:14.235Z,2.45
2023-01-11T06:11:40.948Z,2.30
2023-01-11T06:14:07.789Z,2.22
2023-01-11T06:16:34.545Z,2.70
2023-01-11T06:19:01.281Z,4.07
2023-01-11T06:21:27.988Z,3.67
2023-01-11T06:23:55.454Z,3.90
2023-01-11T06:26:23.286Z,4.85
2023-01-11T06:28:51.162Z,4.30
2023-01-11T06:31:18.642Z,3.75
2023-01-11T06:33:46.440Z,3.10
2023-01-11T06:36:14.447Z,3.47
2023-01-11T06:38:41.996Z,4.53
2023-01-11T06:41:09.276Z,5.05
2023-01-11T06:43:38.099Z,4.90
2023-01-11T06:46:05.493Z,4.50
2023-01-11T06:48:32.363Z,5.10
2023-01-11T06:50:59.309Z,3.75
2023-01-11T06:53:28.806Z,3.72
2023-01-11T06:55:58.478Z,3.55
2023-01-11T06:58:26.594Z,3.50
2023-01-11T07:00:55.558Z,3.55
2023-01-11T07:03:24.596Z,3.30
2023-01-11T07:05:52.761Z,3.00
2023-01-11T07:08:19.989Z,2.42
2023-01-11T07:10:47.511Z,2.17
2023-01-11T07:13:17.693Z,2.90
2023-01-11T07:15:46.145Z,3.15
2023-01-11T07:18:13.042Z,4.60
2023-01-11T07:20:41.021Z,3.80
2023-01-11T07:23:07.853Z,4.03
2023-01-11T07:25:34.971Z,3.83
2023-01-11T07:28:04.987Z,2.90
2023-01-11T07:30:47.855Z,3.28
2023-01-11T07:35:49.696Z,3.47
2023-01-11T07:38:16.794Z,4.20
2023-01-11T07:40:43.708Z,4.20
2023-01-11T07:43:18.326Z,3.70
2023-01-11T07:45:50.490Z,4.00
2023-01-11T07:48:25.416Z,3.50
2023-01-11T07:50:54.388Z,3.13
2023-01-11T07:53:21.507Z,3.15
2023-01-11T07:55:48.237Z,3.28
2023-01-11T07:58:15.790Z,3.38
2023-01-11T08:00:43.131Z,3.17
2023-01-11T08:03:10.580Z,7.65
2023-01-11T08:05:37.687Z,4.43
2023-01-11T08:08:05.493Z,5.88
2023-01-11T08:10:32.902Z,5.35
2023-01-11T08:13:18.434Z,10.07
2023-01-11T08:15:45.354Z,10.95
2023-01-11T08:18:12.739Z,10.40
2023-01-11T08:20:40.266Z,12.70
2023-01-11T08:23:09.614Z,10.88
2023-01-11T08:25:36.993Z,13.40
2023-01-11T08:28:06.266Z,16.83
2023-01-11T08:30:33.319Z,15.02
2023-01-11T08:33:04.248Z,16.45
2023-01-11T08:35:32.489Z,15.77
2023-01-11T08:37:59.228Z,34.20
2023-01-11T08:40:25.988Z,30.05
2023-01-11T08:42:56.962Z,15.35
2023-01-11T08:45:24.124Z,13.55
2023-01-11T08:47:52.018Z,17.83
2023-01-11T08:50:19.701Z,16.58
2023-01-11T08:52:47.652Z,14.52
2023-01-11T08:55:14.495Z,15.27
2023-01-11T08:57:41.227Z,19.17
2023-01-11T09:00:09.292Z,22.58
2023-01-11T09:02:36.208Z,20.00
2023-01-11T09:05:03.299Z,21.52
2023-01-11T09:07:30.094Z,21.60
2023-01-11T09:09:56.839Z,20.60
2023-01-11T09:12:23.747Z,20.08
2023-01-11T09:14:50.440Z,21.38
2023-01-11T09:17:18.978Z,21.02
2023-01-11T09:19:45.734Z,16.92
2023-01-11T09:22:12.557Z,14.43
2023-01-11T09:24:39.281Z,12.40
2023-01-11T09:27:06.344Z,8.57
2023-01-11T09:29:35.539Z,11.30
2023-01-11T09:32:04.020Z,9.48
2023-01-11T09:34:30.783Z,10.65
2023-01-11T09:37:00.629Z,8.60
2023-01-11T09:39:27.831Z,9.85
2023-01-11T09:42:11.788Z,11.85
2023-01-11T09:44:50.845Z,12.80
2023-01-11T09:47:29.561Z,12.80
2023-01-11T09:49:59.490Z,13.30
2023-01-11T09:52:30.187Z,13.40
2023-01-11T09:54:59.085Z,14.38
2023-01-11T09:57:46.353Z,13.27
2023-01-11T10:00:47.695Z,10.60
2023-01-11T10:03:36.202Z,8.73
2023-01-11T10:06:20.316Z,7.32
2023-01-11T10:18:32.084Z,9.30
2023-01-11T10:18:32.088Z,8.77
2023-01-11T10:21:15.102Z,9.50
2023-01-11T10:23:47.503Z,8.23
2023-01-11T10:26:27.469Z,8.65
2023-01-11T10:29:17.320Z,6.43
2023-01-11T10:32:13.763Z,5.63
2023-01-11T10:35:00.804Z,4.65
2023-01-11T10:37:56.136Z,4.15
2023-01-11T10:40:40.562Z,7.93
2023-01-11T10:43:20.274Z,11.77
2023-01-11T10:45:55.774Z,10.15
2023-01-11T10:48:34.593Z,11.98
2023-01-11T10:51:27.426Z,15.57
2023-01-11T10:54:15.468Z,15.57
2023-01-11T10:57:09.013Z,19.33
2023-01-11T10:59:50.913Z,20.63
2023-01-11T11:02:36.181Z,21.45
2023-01-11T11:05:27.335Z,20.98
2023-01-11T11:08:43.314Z,21.33
2023-01-11T11:11:22.633Z,20.27
2023-01-11T11:14:31.220Z,19.90
2023-01-11T11:17:18.302Z,21.55
2023-01-11T11:19:45.209Z,22.88
2023-01-11T11:22:12.684Z,22.50
2023-01-11T11:24:46.732Z,20.80
2023-01-11T11:27:41.993Z,21.58
2023-01-11T11:30:14.090Z,20.10
2023-01-11T11:32:51.600Z,24.30
2023-01-11T11:35:40.703Z,24.38
2023-01-11T11:38:23.648Z,22.55
2023-01-11T11:41:04.097Z,26.30
2023-01-11T11:43:33.048Z,19.75
2023-01-11T11:46:02.048Z,13.88
2023-01-11T11:48:32.205Z,16.67
2023-01-11T11:51:04.729Z,18.70
2023-01-11T11:53:46.118Z,18.55
2023-01-11T11:56:21.357Z,23.15
2023-01-11T11:58:48.387Z,16.95
2023-01-11T12:01:26.220Z,12.50
2023-01-11T12:03:57.434Z,13.68
2023-01-11T12:06:27.891Z,11.10
2023-01-11T12:08:55.846Z,7.90
2023-01-11T12:11:35.826Z,8.88
2023-01-11T12:14:04.395Z,13.60
2023-01-11T12:16:36.642Z,18.00
2023-01-11T12:19:03.602Z,11.27
2023-01-11T12:21:30.571Z,11.90
2023-01-11T12:24:17.446Z,10.52
2023-01-11T12:27:01.088Z,8.45
2023-01-11T12:29:39.908Z,8.60
2023-01-11T12:32:18.925Z,9.18
2023-01-11T12:35:04.287Z,8.20
2023-01-11T12:38:05.311Z,9.02
2023-01-11T12:40:43.983Z,7.97
2023-01-11T12:43:36.798Z,8.05
2023-01-11T12:46:06.639Z,8.25
2023-01-11T12:48:39.574Z,7.90
2023-01-11T12:52:03.985Z,11.63
2023-01-11T12:55:03.092Z,14.10
2023-01-11T12:57:56.509Z,30.02
2023-01-11T13:00:45.552Z,22.70
2023-01-11T13:03:38.140Z,21.67
2023-01-11T13:06:39.777Z,13.98
2023-01-11T13:09:29.204Z,19.40
2023-01-11T13:12:26.084Z,9.65
2023-01-11T13:15:20.031Z,8.48
2023-01-11T13:17:46.765Z,9.55
2023-01-11T13:20:34.273Z,11.13
2023-01-11T13:23:19.425Z,12.10
2023-01-11T13:25:49.453Z,23.80
2023-01-11T13:28:40.540Z,15.18
2023-01-11T13:31:11.195Z,14.07
2023-01-11T13:33:43.893Z,15.63
2023-01-11T13:36:23.263Z,22.88
2023-01-11T13:39:16.712Z,19.88
2023-01-11T13:41:49.052Z,16.95
2023-01-11T13:44:28.031Z,14.32
2023-01-11T13:47:19.352Z,12.80
2023-01-11T13:50:04.183Z,13.18
2023-01-11T13:52:44.222Z,15.52
2023-01-11T13:55:36.498Z,14.63
2023-01-11T13:58:10.436Z,20.42
2023-01-11T14:01:18.838Z,16.50
2023-01-11T14:03:56.887Z,16.48
2023-01-11T14:06:34.954Z,15.85
2023-01-11T14:09:16.823Z,13.32
2023-01-11T14:12:08.978Z,11.93
2023-01-11T14:14:51.009Z,13.55
2023-01-11T14:17:30.034Z,13.27
2023-01-11T14:20:02.594Z,13.45
2023-01-11T14:22:32.148Z,18.67
2023-01-11T14:25:22.775Z,15.95
2023-01-11T14:28:33.452Z,15.13
2023-01-11T14:31:12.251Z,13.48
2023-01-11T14:33:41.853Z,12.48
2023-01-11T14:36:39.725Z,14.23
2023-01-11T14:39:30.808Z,18.23
2023-01-11T14:42:19.026Z,16.40
2023-01-11T14:45:18.219Z,14.30
2023-01-11T14:48:06.824Z,19.38
2023-01-11T14:50:33.605Z,23.73
2023-01-11T14:53:04.686Z,24.30
2023-01-11T14:58:04.981Z,24.05
2023-01-11T15:00:54.773Z,24.90
2023-01-11T15:06:14.804Z,26.60
2023-01-11T15:09:00.474Z,22.60
2023-01-11T15:11:30.066Z,20.58
2023-01-11T15:14:03.673Z,17.15
2023-01-11T15:16:54.926Z,16.45
2023-01-11T15:19:29.555Z,15.07
2023-01-11T15:21:58.658Z,15.75
2023-01-11T15:24:43.073Z,16.92
2023-01-11T15:27:42.398Z,15.27
2023-01-11T15:30:29.481Z,15.32
2023-01-11T15:33:18.480Z,19.73
2023-01-11T15:35:57.568Z,20.73
2023-01-11T15:38:37.078Z,22.58
2023-01-11T15:41:29.418Z,24.88
2023-01-11T15:44:29.125Z,24.75
2023-01-11T15:47:24.686Z,22.73
2023-01-11T15:50:16.333Z,22.25
2023-01-11T15:53:13.460Z,21.35
2023-01-11T15:56:04.519Z,23.27
2023-01-11T15:58:54.450Z,22.20
2023-01-11T16:01:25.342Z,21.95
2023-01-11T16:04:01.571Z,30.67
2023-01-11T16:06:46.455Z,27.20
2023-01-11T16:09:57.825Z,26.92
2023-01-11T16:12:49.830Z,28.38
2023-01-11T16:15:25.872Z,27.83
2023-01-11T16:17:54.039Z,27.52
2023-01-11T16:20:20.779Z,26.25
2023-01-11T16:22:58.117Z,24.30
2023-01-11T16:25:30.332Z,29.70
2023-01-11T16:27:59.550Z,29.98
2023-01-11T16:30:28.146Z,34.38
2023-01-11T16:33:15.312Z,28.75
2023-01-11T16:35:42.610Z,30.73
2023-01-11T16:38:17.103Z,31.40
2023-01-11T16:40:49.100Z,27.80
2023-01-11T16:43:31.509Z,30.83
2023-01-11T16:45:58.641Z,29.17
2023-01-11T16:48:29.978Z,29.67
2023-01-11T16:51:04.797Z,32.28
2023-01-11T16:53:37.594Z,32.00
2023-01-11T16:56:09.188Z,29.05
2023-01-11T16:58:38.575Z,26.13
2023-01-11T17:01:08.111Z,27.23
2023-01-11T17:03:47.778Z,27.65
2023-01-11T17:06:15.087Z,29.73
2023-01-11T17:08:47.575Z,32.35
2023-01-11T17:11:23.659Z,34.85
2023-01-11T17:13:56.733Z,31.80
2023-01-11T17:16:28.100Z,29.50
2023-01-11T17:18:55.418Z,32.80
2023-01-11T17:21:27.513Z,24.67
2023-01-11T17:24:00.479Z,24.48
2023-01-11T17:26:58.225Z,23.20
2023-01-11T17:29:34.817Z,29.52
2023-01-11T17:32:04.580Z,26.23
2023-01-11T17:34:36.944Z,23.38
2023-01-11T17:37:10.802Z,26.90
2023-01-11T17:39:43.516Z,25.02
2023-01-11T17:42:32.858Z,22.17
2023-01-11T17:45:15.946Z,20.13
2023-01-11T17:47:51.706Z,21.80
2023-01-11T17:50:45.468Z,26.05
2023-01-11T17:53:21.986Z,29.88
2023-01-11T17:56:07.355Z,32.70
2023-01-11T17:58:35.943Z,26.50
2023-01-11T18:01:08.858Z,26.55
2023-01-11T18:03:52.718Z,28.40
2023-01-11T18:06:42.575Z,35.22
2023-01-11T18:09:24.518Z,38.55
2023-01-11T18:11:53.059Z,33.10
2023-01-11T18:14:25.597Z,32.15
2023-01-11T18:17:02.122Z,41.33
2023-01-11T18:19:41.562Z,38.03
2023-01-11T18:22:32.238Z,44.20
2023-01-11T18:25:04.272Z,53.00
2023-01-11T18:27:35.676Z,34.88
2023-01-11T18:30:07.970Z,34.08
2023-01-11T18:32:43.656Z,30.67
2023-01-11T18:35:19.041Z,32.47
2023-01-11T18:37:46.565Z,31.85
2023-01-11T18:40:15.141Z,32.08
2023-01-11T18:42:43.732Z,32.67
2023-01-11T18:45:11.852Z,30.10
2023-01-11T18:47:38.753Z,27.77
2023-01-11T18:50:06.236Z,22.88
2023-01-11T18:52:33.296Z,20.13
2023-01-11T18:55:00.166Z,20.10
2023-01-11T18:57:27.063Z,16.70
2023-01-11T18:59:55.635Z,13.95
2023-01-11T19:02:27.056Z,13.65
2023-01-11T19:04:56.304Z,8.57
2023-01-11T19:07:25.358Z,7.10
2023-01-11T19:09:54.921Z,6.03
2023-01-11T19:12:22.278Z,7.47
2023-01-11T19:14:49.268Z,8.60
2023-01-11T19:17:16.222Z,7.78
2023-01-11T19:19:43.444Z,12.30
2023-01-11T19:22:11.753Z,11.65
2023-01-11T19:24:39.907Z,14.68
2023-01-11T19:27:10.029Z,13.48
2023-01-11T19:29:36.991Z,12.65
2023-01-11T19:32:03.985Z,17.70
2023-01-11T19:34:33.918Z,22.15
2023-01-11T19:37:01.224Z,21.48
2023-01-11T19:39:28.234Z,20.00
2023-01-11T19:42:00.004Z,30.98
2023-01-11T19:44:33.570Z,23.42
2023-01-11T19:47:11.533Z,20.17
2023-01-11T19:49:40.523Z,17.60
2023-01-11T19:52:14.396Z,17.88
2023-01-11T19:54:43.473Z,20.27
2023-01-11T19:57:18.121Z,18.70
2023-01-11T19:59:45.337Z,20.20
2023-01-11T20:02:13.942Z,20.23
2023-01-11T20:04:41.385Z,17.10
2023-01-11T20:07:15.697Z,14.95
2023-01-11T20:09:43.689Z,17.27
2023-01-11T20:12:15.761Z,14.40
2023-01-11T20:14:44.980Z,15.80
2023-01-11T20:17:12.627Z,13.80
2023-01-11T20:19:41.876Z,10.55
2023-01-11T20:22:20.693Z,10.40
2023-01-11T20:37:55.336Z,19.10
2023-01-11T20:40:22.738Z,18.70
2023-01-11T20:42:49.759Z,15.80
2023-01-11T20:45:16.975Z,17.42
2023-01-11T20:47:44.623Z,13.35
2023-01-11T20:50:11.873Z,13.38
2023-01-11T20:52:39.261Z,11.32
2023-01-11T20:55:07.386Z,11.52
2023-01-11T20:57:34.868Z,11.98
2023-01-11T21:00:02.009Z,15.35
2023-01-11T21:02:29.123Z,13.90
2023-01-11T21:04:57.232Z,14.70
2023-01-11T21:07:24.517Z,15.52
2023-01-11T21:09:51.505Z,13.40
2023-01-11T21:12:19.664Z,15.43
2023-01-11T21:14:46.535Z,12.88
2023-01-11T21:17:13.657Z,11.15
2023-01-11T21:19:40.999Z,11.80
2023-01-11T21:22:08.217Z,15.60
2023-01-11T21:24:38.768Z,15.07
2023-01-11T21:27:09.107Z,13.13
2023-01-11T21:29:36.490Z,13.40
2023-01-11T21:32:06.677Z,14.98
2023-01-11T21:34:33.874Z,11.82
2023-01-11T21:37:00.831Z,15.95
2023-01-11T21:39:27.915Z,11.85
2023-01-11T21:42:01.387Z,13.18
2023-01-11T21:44:31.889Z,22.15
2023-01-11T21:46:59.619Z,20.80
2023-01-11T21:49:26.615Z,16.38
2023-01-11T21:51:53.996Z,13.05
2023-01-11T21:54:21.337Z,16.77
2023-01-11T21:56:51.599Z,15.70
2023-01-11T21:59:18.599Z,15.27
2023-01-11T22:01:46.472Z,17.35
2023-01-11T22:04:14.944Z,14.07
2023-01-11T22:06:46.435Z,16.38
2023-01-11T22:09:13.641Z,14.52
2023-01-11T22:11:40.509Z,14.45
2023-01-11T22:14:08.923Z,17.10
2023-01-11T22:16:36.923Z,17.60
2023-01-11T22:19:06.313Z,19.50
2023-01-11T22:21:33.688Z,19.80
2023-01-11T22:24:00.615Z,19.45
2023-01-11T22:26:33.427Z,15.23
2023-01-11T22:29:13.022Z,15.10
2023-01-11T22:31:43.102Z,16.45
2023-01-11T22:34:10.904Z,16.00
2023-01-11T22:36:38.194Z,17.67
2023-01-11T22:39:05.206Z,17.92
2023-01-11T22:41:32.832Z,15.30
2023-01-11T22:43:59.652Z,14.32
2023-01-11T22:46:27.501Z,17.63
2023-01-11T22:48:54.252Z,14.98
2023-01-11T22:51:23.695Z,18.67
2023-01-11T22:53:51.948Z,19.92
2023-01-11T22:56:24.093Z,21.35
2023-01-11T22:58:54.767Z,21.05
2023-01-11T23:01:24.589Z,21.27
2023-01-11T23:03:53.263Z,24.00
2023-01-11T23:06:28.883Z,25.52
2023-01-11T23:09:01.479Z,24.65
2023-01-11T23:11:49.997Z,21.63
2023-01-11T23:14:19.092Z,23.02
2023-01-11T23:16:48.114Z,23.38
2023-01-11T23:19:17.582Z,20.60
2023-01-11T23:21:48.633Z,16.83
2023-01-11T23:24:17.167Z,16.92
2023-01-11T23:26:45.142Z,17.23
2023-01-11T23:29:12.375Z,17.45
2023-01-11T23:31:39.245Z,18.63
2023-01-11T23:34:09.275Z,22.10
2023-01-11T23:36:39.054Z,19.83
2023-01-11T23:39:07.736Z,17.92
2023-01-11T23:41:53.485Z,16.38
2023-01-11T23:44:20.669Z,18.25
2023-01-11T23:47:05.847Z,16.25
2023-01-11T23:49:32.945Z,14.15
2023-01-11T23:52:00.528Z,10.60
2023-01-11T23:54:30.154Z,12.40
2023-01-11T23:57:00.169Z,11.05
2023-01-11T23:59:27.462Z,11.52
